Time;durP1;ratioP1;P1;durP2;ratioP2;P2;SDS_P1;SDS_P2;PMS_P1;PMS_P2;Temp;Humidity;BMP_temperature;BMP_pressure;BME280_temperature;BME280_humidity;BME280_pressure;Samples;Min_cycle;Max_cycle;Signal;HPM_P1;HPM_P2
2022/10/02 00:02:06;;;;;;;2.75;1.30;;;18.80;78.50;;;;;;5031339;28;20059;-68
2022/10/02 00:04:44;;;;;;;3.15;1.20;;;18.80;78.50;;;;;;5031140;28;20029;-68
2022/10/02 00:07:10;;;;;;;5.90;1.42;;;18.80;78.60;;;;;;5056803;28;20021;-68
2022/10/02 00:09:55;;;;;;;3.47;1.50;;;18.80;78.50;;;;;;5072080;28;20024;-68
2022/10/02 00:12:22;;;;;;;5.00;1.15;;;18.80;78.50;;;;;;5073304;28;20028;-68
2022/10/02 00:14:48;;;;;;;5.90;1.45;;;18.80;78.60;;;;;;5072051;28;20027;-68
2022/10/02 00:17:36;;;;;;;2.72;1.42;;;18.80;78.60;;;;;;5071896;28;20104;-68
2022/10/02 00:20:10;;;;;;;4.05;1.50;;;18.80;78.50;;;;;;5073111;28;20045;-68
2022/10/02 00:22:44;;;;;;;4.30;1.30;;;18.80;78.60;;;;;;5071666;28;20063;-68
2022/10/02 00:25:30;;;;;;;3.65;1.20;;;18.80;78.70;;;;;;5078202;28;20052;-68
2022/10/02 00:28:11;;;;;;;3.08;1.15;;;18.80;78.60;;;;;;5113530;28;20031;-68
2022/10/02 00:30:44;;;;;;;3.40;1.10;;;18.80;78.60;;;;;;5112321;28;20503;-68
2022/10/02 00:33:55;;;;;;;3.05;1.05;;;18.80;78.60;;;;;;5095552;28;20024;-68
2022/10/02 00:36:26;;;;;;;3.30;1.35;;;18.80;78.50;;;;;;5075065;28;20028;-68
2022/10/02 00:39:04;;;;;;;7.43;1.25;;;18.80;78.70;;;;;;5113476;28;20054;-68
2022/10/02 00:41:36;;;;;;;4.57;1.30;;;18.80;78.70;;;;;;5112284;28;20080;-68
2022/10/02 00:44:39;;;;;;;6.07;1.50;;;18.80;78.70;;;;;;5113099;28;20034;-68
2022/10/02 00:47:17;;;;;;;;;;;18.80;78.60;;;;;;5113331;28;20508;-68
2022/10/02 00:50:01;;;;;;;4.72;1.13;;;18.80;78.60;;;;;;5113098;28;19903;-68
2022/10/02 00:52:36;;;;;;;5.60;1.40;;;18.80;78.80;;;;;;5095137;28;20566;-68
2022/10/02 00:55:04;;;;;;;2.45;1.38;;;18.80;78.90;;;;;;5090796;28;20016;-68
2022/10/02 00:57:41;;;;;;;2.17;1.00;;;18.80;78.80;;;;;;5092694;28;20055;-68
2022/10/02 01:00:11;;;;;;;4.32;1.30;;;18.80;78.90;;;;;;5091623;28;20043;-68
2022/10/02 01:02:37;;;;;;;4.53;1.20;;;18.80;78.80;;;;;;5091096;28;20036;-68
2022/10/02 01:05:04;;;;;;;5.05;1.40;;;18.80;78.90;;;;;;5092676;28;20021;-68
2022/10/02 01:07:29;;;;;;;2.63;1.38;;;18.80;78.70;;;;;;5091470;28;20035;-68
2022/10/02 01:09:55;;;;;;;2.92;1.02;;;18.80;78.90;;;;;;5074540;28;20028;-68
2022/10/02 01:12:21;;;;;;;4.47;1.00;;;18.80;78.90;;;;;;5092332;28;20020;-68
2022/10/02 01:14:47;;;;;;;2.78;1.13;;;18.80;79.00;;;;;;5074490;28;20009;-68
2022/10/02 01:17:32;;;;;;;4.20;1.40;;;18.80;79.00;;;;;;5092179;28;20024;-68
2022/10/02 01:19:58;;;;;;;6.03;1.20;;;18.80;79.00;;;;;;5075264;28;20460;-68
2022/10/02 01:22:44;;;;;;;4.80;1.20;;;18.90;79.10;;;;;;5074409;28;20394;-69
2022/10/02 01:25:10;;;;;;;5.68;1.40;;;18.90;79.10;;;;;;5079063;28;20047;-69
2022/10/02 01:27:35;;;;;;;7.55;1.38;;;18.90;79.00;;;;;;5111344;28;20051;-68
2022/10/02 01:30:12;;;;;;;5.45;1.05;;;18.90;79.00;;;;;;5111602;28;20062;-68
2022/10/02 01:32:40;;;;;;;2.53;1.00;;;18.80;78.90;;;;;;5095533;28;20418;-68
2022/10/02 01:35:06;;;;;;;4.72;1.42;;;18.80;78.90;;;;;;5094708;28;20020;-68
2022/10/02 01:37:33;;;;;;;3.22;1.08;;;18.90;79.00;;;;;;5111363;28;20031;-68
2022/10/02 01:40:01;;;;;;;6.13;1.25;;;18.90;79.00;;;;;;5094487;28;20016;-68
2022/10/02 01:42:27;;;;;;;2.13;1.30;;;18.90;79.00;;;;;;5094751;28;20020;-69
2022/10/02 01:44:53;;;;;;;5.80;1.10;;;18.90;79.00;;;;;;5112477;28;20045;-68
2022/10/02 01:47:26;;;;;;;5.43;1.20;;;18.90;79.10;;;;;;5112578;28;20439;-68
2022/10/02 01:50:19;;;;;;;4.07;1.33;;;18.80;79.00;;;;;;5111363;28;20069;-68
2022/10/02 01:52:45;;;;;;;1.98;1.15;;;18.90;79.00;;;;;;5093235;28;20040;-68
2022/10/02 01:55:40;;;;;;;3.65;1.30;;;18.90;79.00;;;;;;5092012;28;20501;-68
2022/10/02 01:58:24;;;;;;;4.45;1.13;;;18.90;79.00;;;;;;5092252;28;20016;-68
2022/10/02 02:01:14;;;;;;;5.40;1.35;;;18.90;79.00;;;;;;5091988;28;20029;-68
2022/10/02 02:04:21;;;;;;;5.03;1.00;;;18.90;79.00;;;;;;5091805;28;20072;-68
2022/10/02 02:07:02;;;;;;;2.03;0.95;;;18.90;78.90;;;;;;5054203;28;20037;-68
2022/10/02 02:09:46;;;;;;;2.58;0.93;;;18.90;79.00;;;;;;5057553;28;20032;-68
2022/10/02 02:12:17;;;;;;;5.07;1.05;;;18.90;79.00;;;;;;5073285;28;20034;-68
2022/10/02 02:14:47;;;;;;;3.33;1.10;;;18.90;79.10;;;;;;5056827;28;20055;-68
2022/10/02 02:17:37;;;;;;;4.43;1.17;;;18.90;79.00;;;;;;5056531;28;20064;-68
2022/10/02 02:20:07;;;;;;;3.13;1.27;;;18.90;79.00;;;;;;5056505;28;20023;-68
2022/10/02 02:22:35;;;;;;;2.50;1.10;;;18.90;79.10;;;;;;5056521;28;20035;-68
2022/10/02 02:25:07;;;;;;;2.65;1.30;;;18.90;79.00;;;;;;5056718;28;20031;-68
2022/10/02 02:27:36;;;;;;;4.82;1.50;;;18.90;79.00;;;;;;5056102;28;20103;-68
2022/10/02 02:30:07;;;;;;;2.72;1.30;;;18.90;79.10;;;;;;5056277;28;20024;-68
2022/10/02 02:32:35;;;;;;;3.75;1.30;;;18.90;79.10;;;;;;5056068;28;20099;-68
2022/10/02 02:35:05;;;;;;;3.70;1.30;;;18.90;79.10;;;;;;5056610;28;20522;-68
2022/10/02 02:37:32;;;;;;;4.25;1.40;;;18.90;79.10;;;;;;5056338;28;20020;-68
2022/10/02 02:40:12;;;;;;;4.95;1.40;;;18.90;79.20;;;;;;5055977;28;20074;-68
2022/10/02 02:42:41;;;;;;;2.55;1.20;;;18.90;79.20;;;;;;5059333;28;20032;-68
2022/10/02 02:45:31;;;;;;;2.45;0.82;;;18.90;79.20;;;;;;5093761;28;20020;-68
2022/10/02 02:48:02;;;;;;;2.83;1.20;;;18.90;79.10;;;;;;5093844;28;20024;-68
2022/10/02 02:50:42;;;;;;;1.85;0.93;;;18.90;79.20;;;;;;5093504;28;20016;-69
2022/10/02 02:53:10;;;;;;;2.85;1.00;;;18.90;79.10;;;;;;5074692;28;20487;-68
2022/10/02 02:55:47;;;;;;;2.25;1.20;;;18.90;79.10;;;;;;5074557;28;20056;-68
2022/10/02 02:58:17;;;;;;;2.42;1.08;;;18.90;79.10;;;;;;5057984;28;20619;-68
2022/10/02 03:00:43;;;;;;;1.98;0.82;;;18.90;79.20;;;;;;5057352;28;20107;-68
2022/10/02 03:03:09;;;;;;;2.95;1.00;;;18.90;79.10;;;;;;5074509;28;20064;-69
2022/10/02 03:05:35;;;;;;;4.57;0.90;;;18.90;79.00;;;;;;5073219;28;20025;-68
2022/10/02 03:08:05;;;;;;;5.45;1.60;;;18.90;79.20;;;;;;5056643;28;20058;-68
2022/10/02 03:10:55;;;;;;;2.35;1.00;;;18.90;79.10;;;;;;5056531;28;20024;-68
2022/10/02 03:13:27;;;;;;;4.57;0.88;;;18.90;79.20;;;;;;5073982;28;20480;-68
2022/10/02 03:16:16;;;;;;;3.03;0.90;;;18.80;79.10;;;;;;5074294;28;20016;-68
2022/10/02 03:18:54;;;;;;;2.03;0.90;;;18.90;79.20;;;;;;5073441;28;20036;-68
2022/10/02 03:21:27;;;;;;;3.28;1.00;;;18.80;79.20;;;;;;5074010;28;20548;-68
2022/10/02 03:24:07;;;;;;;3.05;1.20;;;18.90;79.20;;;;;;5073109;28;20051;-68
2022/10/02 03:26:40;;;;;;;2.63;1.20;;;18.90;79.20;;;;;;5100853;28;20043;-68
2022/10/02 03:29:09;;;;;;;2.63;0.90;;;18.90;79.20;;;;;;5113549;28;20071;-68
2022/10/02 03:31:35;;;;;;;4.88;0.95;;;18.90;79.30;;;;;;5096990;28;20048;-68
2022/10/02 03:34:01;;;;;;;2.58;1.30;;;18.90;79.20;;;;;;5096261;28;20115;-68
2022/10/02 03:36:26;;;;;;;5.15;1.20;;;18.90;79.20;;;;;;5113206;28;20043;-68
2022/10/02 03:38:54;;;;;;;3.42;1.17;;;18.90;79.30;;;;;;5113237;28;20051;-68
2022/10/02 03:41:19;;;;;;;0.93;0.80;;;18.90;79.30;;;;;;5096077;28;20023;-68
2022/10/02 03:43:45;;;;;;;7.30;1.45;;;18.90;79.30;;;;;;5114311;28;20102;-68
2022/10/02 03:46:11;;;;;;;4.55;1.30;;;18.90;80.30;;;;;;5114271;28;20019;-68
2022/10/02 03:48:36;;;;;;;5.55;1.08;;;18.80;79.20;;;;;;5114248;28;20520;-68
2022/10/02 03:51:02;;;;;;;3.85;1.30;;;18.90;79.40;;;;;;5108505;28;20043;-68
2022/10/02 03:53:33;;;;;;;3.25;1.10;;;18.90;79.30;;;;;;5093774;28;20024;-68
2022/10/02 03:56:11;;;;;;;5.10;1.15;;;18.90;79.50;;;;;;5075841;28;20103;-68
2022/10/02 03:58:38;;;;;;;2.72;1.17;;;18.90;79.40;;;;;;5076124;28;20043;-68
2022/10/02 04:01:12;;;;;;;5.28;1.38;;;18.90;79.40;;;;;;5075987;28;20038;-68
2022/10/02 04:03:55;;;;;;;4.97;1.02;;;18.90;79.30;;;;;;5092374;28;20485;-68
2022/10/02 04:06:38;;;;;;;3.60;1.10;;;18.90;79.40;;;;;;5092363;28;20020;-68
2022/10/02 04:09:14;;;;;;;4.40;1.67;;;18.90;79.40;;;;;;5093537;28;20038;-68
2022/10/02 04:11:45;;;;;;;2.15;1.05;;;18.90;79.60;;;;;;5076201;28;20016;-68
2022/10/02 04:14:24;;;;;;;2.20;0.82;;;18.90;79.50;;;;;;5075656;28;20038;-68
2022/10/02 04:17:10;;;;;;;5.75;1.48;;;18.90;79.40;;;;;;5075964;28;20025;-68
2022/10/02 04:19:47;;;;;;;2.35;1.08;;;18.90;79.50;;;;;;5092171;28;20020;-68
2022/10/02 04:22:33;;;;;;;2.45;0.90;;;18.90;79.50;;;;;;5091883;28;20013;-68
2022/10/02 04:25:02;;;;;;;1.75;0.82;;;18.90;79.50;;;;;;5092857;28;20030;-68
2022/10/02 04:27:54;;;;;;;1.30;0.80;;;18.80;79.50;;;;;;5112369;28;20068;-68
2022/10/02 04:30:20;;;;;;;3.70;1.00;;;18.80;79.40;;;;;;5109751;28;20039;-68
2022/10/02 04:32:46;;;;;;;5.18;1.00;;;18.90;79.50;;;;;;5113532;28;20562;-68
2022/10/02 04:35:15;;;;;;;1.73;0.85;;;18.90;79.60;;;;;;5112107;28;20035;-68
2022/10/02 04:38:16;;;;;;;4.28;1.00;;;18.90;79.60;;;;;;5113124;28;20027;-68
2022/10/02 04:41:15;;;;;;;2.92;1.05;;;18.90;79.50;;;;;;5111899;28;20107;-68
2022/10/02 04:43:49;;;;;;;4.35;0.90;;;18.80;79.60;;;;;;5111951;28;20024;-68
2022/10/02 04:46:18;;;;;;;2.88;1.05;;;18.90;79.70;;;;;;5113255;28;20084;-68
2022/10/02 04:49:10;;;;;;;1.33;1.17;;;18.90;79.70;;;;;;5113104;28;20023;-68
2022/10/02 04:51:47;;;;;;;5.47;1.10;;;18.90;79.60;;;;;;5102545;28;20079;-68
2022/10/02 04:54:38;;;;;;;3.58;0.90;;;18.90;79.70;;;;;;5092554;28;20074;-68
2022/10/02 04:57:15;;;;;;;4.95;1.50;;;18.90;79.60;;;;;;5092687;28;20035;-69
2022/10/02 05:00:02;;;;;;;5.43;1.13;;;18.90;79.70;;;;;;5092618;28;20024;-69
2022/10/02 05:02:31;;;;;;;4.10;1.20;;;18.90;79.70;;;;;;5092729;28;20049;-68
2022/10/02 05:05:05;;;;;;;4.03;1.00;;;18.90;79.80;;;;;;5092494;28;20027;-69
2022/10/02 05:07:49;;;;;;;2.13;1.08;;;18.90;79.70;;;;;;5092505;28;20556;-68
2022/10/02 05:10:33;;;;;;;3.65;1.05;;;18.90;79.80;;;;;;5092321;28;20024;-68
2022/10/02 05:13:19;;;;;;;6.93;1.23;;;18.90;79.80;;;;;;5092587;28;20036;-68
2022/10/02 05:15:57;;;;;;;6.78;1.20;;;18.90;79.90;;;;;;5070471;28;20039;-68
2022/10/02 05:18:50;;;;;;;4.22;1.75;;;18.90;79.90;;;;;;5091433;28;20510;-68
2022/10/02 05:21:31;;;;;;;3.90;1.60;;;18.90;79.90;;;;;;5076733;28;20021;-68
2022/10/02 05:24:19;;;;;;;5.60;1.25;;;18.90;80.00;;;;;;5090822;28;20404;-68
2022/10/02 05:26:45;;;;;;;3.90;1.20;;;18.90;80.00;;;;;;5107022;28;20024;-68
2022/10/02 05:29:23;;;;;;;6.90;1.38;;;18.90;80.00;;;;;;5112529;28;20081;-68
2022/10/02 05:32:17;;;;;;;4.32;1.40;;;18.90;80.00;;;;;;5111349;28;20028;-68
2022/10/02 05:35:01;;;;;;;6.85;1.38;;;18.90;79.90;;;;;;5111155;28;20103;-68
2022/10/02 05:37:36;;;;;;;3.58;1.00;;;18.90;79.90;;;;;;5112541;28;20073;-68
2022/10/02 05:40:29;;;;;;;2.50;1.10;;;18.90;80.00;;;;;;5111237;28;20028;-68
2022/10/02 05:43:05;;;;;;;4.00;1.05;;;18.90;80.00;;;;;;5114712;28;20024;-68
2022/10/02 05:45:38;;;;;;;4.10;1.10;;;18.90;80.00;;;;;;5116726;28;20024;-68
2022/10/02 05:48:25;;;;;;;7.03;1.40;;;18.90;80.00;;;;;;5115560;28;20035;-68
2022/10/02 05:50:52;;;;;;;4.03;1.25;;;18.90;80.00;;;;;;5095738;28;20048;-68
2022/10/02 05:53:26;;;;;;;2.88;1.30;;;18.90;80.00;;;;;;5094847;28;20039;-68
2022/10/02 05:55:54;;;;;;;7.47;1.27;;;18.90;80.00;;;;;;5095820;28;20031;-68
2022/10/02 05:58:23;;;;;;;3.90;1.30;;;18.90;80.00;;;;;;5094796;28;20012;-68
2022/10/02 06:01:01;;;;;;;3.50;0.98;;;18.90;80.10;;;;;;5095933;28;20492;-68
2022/10/02 06:03:33;;;;;;;6.63;1.30;;;18.90;80.00;;;;;;5094753;28;20035;-68
2022/10/02 06:05:59;;;;;;;5.60;1.27;;;18.90;80.10;;;;;;5094341;28;20025;-68
2022/10/02 06:08:39;;;;;;;1.48;0.90;;;18.90;80.10;;;;;;5094489;28;20107;-68
2022/10/02 06:11:35;;;;;;;3.20;0.98;;;18.90;80.10;;;;;;5078529;28;20095;-68
2022/10/02 06:14:26;;;;;;;3.20;1.15;;;18.90;80.00;;;;;;5094386;28;20012;-68
2022/10/02 06:17:00;;;;;;;4.80;1.17;;;18.90;80.00;;;;;;5093407;28;20040;-68
2022/10/02 06:19:56;;;;;;;5.28;1.10;;;18.90;80.10;;;;;;5094378;28;20040;-68
2022/10/02 06:22:30;;;;;;;8.20;1.10;;;18.90;80.00;;;;;;5095384;28;20024;-68
2022/10/02 06:25:03;;;;;;;6.22;1.25;;;18.90;80.10;;;;;;5096073;28;20017;-68
2022/10/02 06:27:39;;;;;;;4.85;1.23;;;18.90;80.10;;;;;;5114689;28;20024;-68
2022/10/02 06:30:08;;;;;;;2.78;1.10;;;18.90;80.10;;;;;;5115889;28;20019;-68
2022/10/02 06:32:39;;;;;;;3.75;1.38;;;18.80;80.00;;;;;;5097844;28;20024;-68
2022/10/02 06:35:15;;;;;;;6.43;1.50;;;18.90;80.10;;;;;;5115443;28;20072;-68
2022/10/02 06:38:18;;;;;;;4.15;1.27;;;18.90;80.00;;;;;;5114476;28;20042;-68
2022/10/02 06:41:19;;;;;;;6.65;1.27;;;18.90;80.00;;;;;;5114691;28;20023;-68
2022/10/02 06:43:45;;;;;;;6.72;0.85;;;18.90;80.00;;;;;;5114266;28;20039;-68
2022/10/02 06:46:45;;;;;;;3.63;1.30;;;18.90;80.10;;;;;;5115565;28;20027;-68
2022/10/02 06:49:21;;;;;;;4.03;0.90;;;18.90;80.10;;;;;;5052524;28;20060;-68
2022/10/02 06:51:59;;;;;;;2.88;1.10;;;18.90;80.20;;;;;;5005749;28;20409;-69
2022/10/02 06:54:39;;;;;;;4.85;0.98;;;18.90;80.20;;;;;;5011987;28;20061;-68
2022/10/02 06:57:40;;;;;;;2.95;0.90;;;18.90;80.10;;;;;;5012615;28;20049;-69
2022/10/02 07:00:15;;;;;;;4.22;1.25;;;18.90;80.10;;;;;;5012237;28;20044;-69
2022/10/02 07:03:00;;;;;;;6.32;1.40;;;18.90;80.20;;;;;;4997311;28;20018;-69
2022/10/02 07:05:28;;;;;;;8.05;1.30;;;18.90;80.20;;;;;;4996197;28;20022;-69
2022/10/02 07:08:19;;;;;;;7.55;1.52;;;18.90;81.20;;;;;;5012594;28;20073;-69
2022/10/02 07:10:56;;;;;;;2.42;1.00;;;18.90;80.10;;;;;;5010883;28;20496;-68
2022/10/02 07:13:42;;;;;;;2.80;0.95;;;18.90;78.70;;;;;;5012431;28;20026;-68
2022/10/02 07:16:19;;;;;;;4.18;0.95;;;18.90;78.90;;;;;;5012423;28;20030;-68
2022/10/02 07:19:03;;;;;;;4.07;1.15;;;18.90;79.10;;;;;;5012235;28;20091;-68
2022/10/02 07:22:07;;;;;;;5.93;1.38;;;18.90;79.00;;;;;;5012100;28;20563;-68
2022/10/02 07:24:52;;;;;;;5.22;1.10;;;18.80;78.70;;;;;;5087217;28;20025;-68
2022/10/02 07:27:32;;;;;;;3.42;1.15;;;18.90;78.70;;;;;;5074120;28;20021;-68
2022/10/02 07:30:05;;;;;;;3.67;1.40;;;18.80;78.70;;;;;;5074010;28;20035;-68
2022/10/02 07:32:33;;;;;;;;;;;18.80;78.60;;;;;;5073068;28;20150;-68
2022/10/02 07:35:18;;;;;;;3.55;1.13;;;18.80;78.50;;;;;;5073625;28;19908;-68
2022/10/02 07:37:55;;;;;;;2.38;0.98;;;18.80;78.40;;;;;;5073820;28;20085;-68
2022/10/02 07:40:54;;;;;;;3.70;1.17;;;18.80;78.90;;;;;;5072980;28;20017;-68
2022/10/02 07:43:35;;;;;;;4.25;1.15;;;18.80;78.30;;;;;;5082790;28;20032;-68
2022/10/02 07:46:08;;;;;;;3.22;1.02;;;18.80;78.30;;;;;;5074290;28;20103;-68
2022/10/02 07:48:55;;;;;;;2.65;0.80;;;18.80;78.20;;;;;;5072575;28;20024;-68
2022/10/02 07:51:46;;;;;;;5.20;1.05;;;18.80;78.30;;;;;;5078841;28;20032;-68
2022/10/02 07:54:11;;;;;;;1.83;1.00;;;18.80;78.30;;;;;;5092684;28;20027;-68
2022/10/02 07:56:37;;;;;;;7.72;1.13;;;18.80;78.20;;;;;;5088136;28;20474;-68
2022/10/02 07:59:09;;;;;;;4.97;1.17;;;18.80;78.20;;;;;;5080905;28;20059;-68
2022/10/02 08:01:37;;;;;;;4.18;0.80;;;18.80;78.10;;;;;;5055539;28;20398;-68
2022/10/02 08:04:08;;;;;;;4.32;1.40;;;18.70;78.10;;;;;;5071907;28;20025;-68
2022/10/02 08:06:35;;;;;;;3.40;1.20;;;18.70;78.10;;;;;;5072128;28;20024;-68
2022/10/02 08:09:15;;;;;;;6.15;1.20;;;18.80;78.20;;;;;;5072158;28;20108;-69
2022/10/02 08:11:48;;;;;;;3.70;1.02;;;18.70;78.10;;;;;;5071981;28;20070;-68
2022/10/02 08:14:18;;;;;;;48.40;6.57;;;18.70;78.10;;;;;;5071926;28;20475;-68
2022/10/02 08:16:48;;;;;;;39.95;5.65;;;18.70;78.20;;;;;;5071617;28;20048;-68
2022/10/02 08:19:34;;;;;;;38.90;7.25;;;18.70;78.60;;;;;;5071271;28;20024;-68
2022/10/02 08:22:09;;;;;;;36.20;5.03;;;18.70;78.50;;;;;;5071575;28;20051;-68
2022/10/02 08:24:50;;;;;;;27.42;5.60;;;18.70;78.80;;;;;;5071610;28;20155;-68
2022/10/02 08:27:22;;;;;;;35.55;5.35;;;18.80;79.00;;;;;;5111772;28;20030;-68
2022/10/02 08:29:54;;;;;;;43.08;6.28;;;18.70;79.10;;;;;;5112361;28;20038;-69
2022/10/02 08:32:21;;;;;;;30.50;6.20;;;18.80;79.20;;;;;;5112394;28;20042;-68
2022/10/02 08:34:47;;;;;;;40.95;6.50;;;18.70;79.30;;;;;;5095480;28;20277;-68
2022/10/02 08:37:28;;;;;;;32.95;5.72;;;18.70;79.20;;;;;;5112169;28;20032;-68
2022/10/02 08:40:12;;;;;;;38.28;5.55;;;18.80;79.30;;;;;;5113163;28;20030;-69
2022/10/02 08:42:55;;;;;;;29.02;6.00;;;18.80;79.40;;;;;;5112681;28;20031;-68
2022/10/02 08:45:40;;;;;;;40.90;6.53;;;18.70;79.30;;;;;;5111537;28;20055;-68
2022/10/02 08:48:38;;;;;;;38.53;6.75;;;18.70;79.30;;;;;;5112066;28;20027;-68
2022/10/02 08:51:12;;;;;;;26.92;5.63;;;18.70;79.20;;;;;;5041205;28;20084;-68
2022/10/02 08:54:11;;;;;;;41.90;6.55;;;18.70;79.30;;;;;;5010876;28;20030;-68
2022/10/02 08:56:58;;;;;;;25.45;5.78;;;18.70;79.20;;;;;;5010789;28;20030;-68
2022/10/02 08:59:35;;;;;;;36.38;6.13;;;18.70;79.20;;;;;;5010631;28;20046;-68
2022/10/02 09:02:01;;;;;;;29.48;5.90;;;18.80;79.30;;;;;;5010383;28;20041;-68
2022/10/02 09:04:48;;;;;;;25.88;5.47;;;18.70;79.20;;;;;;5010719;28;20033;-68
2022/10/02 09:07:22;;;;;;;24.17;5.57;;;18.70;79.20;;;;;;5010528;28;20504;-68
2022/10/02 09:10:11;;;;;;;26.80;6.20;;;18.70;79.20;;;;;;5010555;28;20042;-69
2022/10/02 09:12:52;;;;;;;26.85;5.63;;;18.70;79.10;;;;;;5010424;28;20034;-68
2022/10/02 09:15:24;;;;;;;35.28;6.38;;;18.70;79.10;;;;;;5010301;28;20536;-68
2022/10/02 09:18:05;;;;;;;27.52;5.55;;;18.70;79.10;;;;;;5009968;28;20113;-68
2022/10/02 09:20:42;;;;;;;37.90;6.28;;;18.70;79.10;;;;;;5010369;28;20185;-69
2022/10/02 09:23:38;;;;;;;29.00;5.47;;;18.70;79.00;;;;;;5010254;28;20033;-68
2022/10/02 09:26:14;;;;;;;33.83;6.15;;;18.70;79.00;;;;;;5030173;28;20040;-68
2022/10/02 09:29:10;;;;;;;29.33;6.75;;;18.70;79.00;;;;;;5111496;28;20019;-69
2022/10/02 09:32:08;;;;;;;22.48;5.18;;;18.70;79.00;;;;;;5112842;28;20028;-69
2022/10/02 09:34:53;;;;;;;24.30;5.18;;;18.70;78.90;;;;;;5112616;28;20387;-69
2022/10/02 09:37:37;;;;;;;32.60;6.78;;;18.70;79.00;;;;;;5111305;28;20077;-69
2022/10/02 09:40:29;;;;;;;22.30;5.80;;;18.70;79.90;;;;;;5112388;28;20103;-69
2022/10/02 09:43:27;;;;;;;27.85;6.05;;;18.70;78.80;;;;;;5112679;28;20050;-69
2022/10/02 09:46:05;;;;;;;23.33;5.22;;;18.60;78.80;;;;;;5111263;28;20023;-69
2022/10/02 09:48:46;;;;;;;22.25;5.90;;;18.70;78.80;;;;;;5112453;28;20120;-69
2022/10/02 09:51:26;;;;;;;19.30;5.50;;;18.60;78.80;;;;;;5106397;28;20523;-69
2022/10/02 09:53:57;;;;;;;27.00;5.18;;;18.60;78.80;;;;;;5091018;28;20486;-69
2022/10/02 09:56:43;;;;;;;21.92;5.43;;;18.60;78.70;;;;;;5073850;28;20443;-69
2022/10/02 09:59:33;;;;;;;22.67;5.00;;;18.60;78.80;;;;;;5091970;28;20048;-69
2022/10/02 10:02:22;;;;;;;17.83;5.65;;;18.60;78.70;;;;;;5092150;28;20062;-69
2022/10/02 10:05:07;;;;;;;23.88;5.55;;;18.60;78.70;;;;;;5069732;28;20414;-69
2022/10/02 10:07:50;;;;;;;21.10;5.82;;;18.60;78.70;;;;;;5069702;28;20024;-69
2022/10/02 10:10:28;;;;;;;21.08;4.65;;;18.60;78.70;;;;;;5069607;28;20545;-69
2022/10/02 10:13:16;;;;;;;18.05;4.85;;;18.60;78.70;;;;;;5069292;28;20027;-69
2022/10/02 10:15:45;;;;;;;19.92;4.78;;;18.60;78.60;;;;;;5053380;28;20037;-69
2022/10/02 10:18:25;;;;;;;25.90;5.20;;;18.60;78.60;;;;;;5069571;28;20471;-69
2022/10/02 10:20:53;;;;;;;15.43;5.15;;;18.60;78.60;;;;;;5069617;28;20052;-69
2022/10/02 10:23:48;;;;;;;14.80;5.25;;;18.60;78.60;;;;;;5069221;28;20058;-69
2022/10/02 10:26:47;;;;;;;19.05;4.70;;;18.60;78.60;;;;;;5069424;28;20028;-69
2022/10/02 10:29:20;;;;;;;19.42;4.80;;;18.60;78.60;;;;;;5070996;28;20039;-69
2022/10/02 10:32:22;;;;;;;17.25;4.85;;;18.60;78.70;;;;;;5073115;28;20035;-69
2022/10/02 10:34:59;;;;;;;19.45;5.00;;;18.60;78.60;;;;;;5072873;28;20146;-69
2022/10/02 10:41:04;;;;;;;18.75;4.47;;;18.60;78.60;;;;;;5075884;28;20418;-69
2022/10/02 10:44:04;;;;;;;18.33;4.13;;;18.60;78.60;;;;;;5115403;28;20092;-69
2022/10/02 10:46:32;;;;;;;19.60;5.35;;;18.60;78.60;;;;;;5115468;28;20031;-69
2022/10/02 10:49:19;;;;;;;18.17;4.78;;;18.60;78.60;;;;;;5114300;28;20027;-69
2022/10/02 10:52:14;;;;;;;17.08;4.15;;;18.60;78.60;;;;;;5104847;28;20051;-69
2022/10/02 10:54:59;;;;;;;16.92;4.72;;;18.60;78.60;;;;;;5093834;28;20033;-69
2022/10/02 10:57:51;;;;;;;18.88;4.10;;;18.60;78.60;;;;;;5094669;28;20021;-69
2022/10/02 11:00:47;;;;;;;15.23;3.90;;;18.60;78.60;;;;;;5094810;28;20410;-69
2022/10/02 11:03:29;;;;;;;18.00;4.57;;;18.60;78.60;;;;;;5072236;28;20418;-69
2022/10/02 11:06:08;;;;;;;15.85;4.72;;;18.60;78.60;;;;;;5055769;28;20036;-69
2022/10/02 11:08:54;;;;;;;15.88;4.97;;;18.60;78.60;;;;;;5056534;28;20032;-69
2022/10/02 11:11:30;;;;;;;14.68;4.38;;;18.60;78.60;;;;;;5055447;28;20097;-69
2022/10/02 11:14:04;;;;;;;13.73;3.90;;;18.50;78.50;;;;;;5056245;28;20036;-69
2022/10/02 11:16:42;;;;;;;17.95;4.20;;;18.60;78.60;;;;;;5055905;28;20038;-69
2022/10/02 11:19:16;;;;;;;13.85;4.15;;;18.50;78.60;;;;;;5055576;28;20083;-69
2022/10/02 11:22:13;;;;;;;19.90;4.60;;;18.50;78.50;;;;;;5055279;28;20569;-69
2022/10/02 11:24:49;;;;;;;12.52;3.90;;;18.60;78.60;;;;;;5055355;28;20032;-69
2022/10/02 11:27:39;;;;;;;13.82;4.13;;;18.60;78.60;;;;;;5071701;28;20103;-69
2022/10/02 11:30:33;;;;;;;13.43;4.28;;;18.60;78.70;;;;;;5071896;28;20089;-69
2022/10/02 11:33:40;;;;;;;14.63;3.75;;;18.60;78.70;;;;;;5071637;28;20430;-69
2022/10/02 11:36:41;;;;;;;10.85;3.45;;;18.50;78.70;;;;;;5061352;28;20032;-69
2022/10/02 11:39:29;;;;;;;13.18;3.90;;;18.50;78.70;;;;;;5060450;28;20040;-69
2022/10/02 11:42:16;;;;;;;13.18;3.90;;;18.60;78.90;;;;;;5114509;28;20024;-69
2022/10/02 11:45:06;;;;;;;12.65;4.40;;;18.60;78.70;;;;;;5113343;28;20493;-69
2022/10/02 11:47:53;;;;;;;17.73;4.45;;;18.50;78.70;;;;;;5114541;28;20024;-69
2022/10/02 11:50:38;;;;;;;12.07;3.33;;;18.50;78.80;;;;;;5112765;28;20375;-69
2022/10/02 11:53:44;;;;;;;12.30;4.00;;;18.60;78.80;;;;;;5072362;28;20040;-69
2022/10/02 11:56:20;;;;;;;12.25;3.53;;;18.50;78.70;;;;;;5014796;28;20026;-69
2022/10/02 11:59:17;;;;;;;10.20;3.45;;;18.50;78.80;;;;;;5015626;28;20511;-69
2022/10/02 12:01:52;;;;;;;16.77;3.63;;;18.60;78.80;;;;;;5031461;28;20147;-69
2022/10/02 12:04:56;;;;;;;13.50;3.38;;;18.60;78.80;;;;;;4999409;28;20033;-69
2022/10/02 12:07:21;;;;;;;11.00;3.50;;;18.50;78.70;;;;;;5031130;28;20064;-69
2022/10/02 12:10:02;;;;;;;13.13;3.15;;;18.50;78.80;;;;;;5031086;28;20172;-69
2022/10/02 12:13:16;;;;;;;10.52;3.55;;;18.50;78.80;;;;;;5015390;28;20083;-69
2022/10/02 12:16:03;;;;;;;9.70;3.47;;;18.50;78.80;;;;;;5017752;28;20112;-69
2022/10/02 12:19:00;;;;;;;9.88;3.55;;;18.50;78.80;;;;;;5016090;28;20037;-69
2022/10/02 12:27:32;;;;;;;10.70;3.70;;;18.50;78.80;;;;;;4991661;28;20088;-69
2022/10/02 12:30:21;;;;;;;9.35;2.75;;;18.50;78.70;;;;;;4991603;28;20037;-69
2022/10/02 12:32:55;;;;;;;8.93;2.90;;;18.50;78.70;;;;;;5013909;28;20094;-69
2022/10/02 12:35:43;;;;;;;12.35;3.45;;;18.50;78.70;;;;;;5034030;28;20029;-69
2022/10/02 12:38:39;;;;;;;11.65;3.15;;;18.60;78.80;;;;;;5033747;28;20095;-69
2022/10/02 12:41:17;;;;;;;7.88;3.00;;;18.50;78.70;;;;;;5033843;28;20399;-69
2022/10/02 12:44:04;;;;;;;9.20;3.22;;;18.50;78.70;;;;;;5034076;28;20033;-69
2022/10/02 12:46:56;;;;;;;10.27;2.95;;;18.50;78.70;;;;;;5050191;28;20044;-69
2022/10/02 12:49:30;;;;;;;7.32;3.03;;;18.50;78.70;;;;;;5033894;28;20090;-69
2022/10/02 12:52:20;;;;;;;9.50;3.25;;;18.50;78.70;;;;;;5060614;28;20053;-69
2022/10/02 12:55:22;;;;;;;11.10;3.03;;;18.50;78.70;;;;;;5056610;28;20033;-69
2022/10/02 12:58:12;;;;;;;10.27;2.80;;;18.50;78.70;;;;;;5077203;28;20032;-69
2022/10/02 13:00:38;;;;;;;6.03;2.70;;;18.50;78.70;;;;;;5092587;28;20103;-69
2022/10/02 13:03:19;;;;;;;9.82;2.67;;;18.50;78.70;;;;;;5092595;28;20095;-69
2022/10/02 13:06:05;;;;;;;11.25;3.55;;;18.50;78.70;;;;;;5092619;28;20024;-69
2022/10/02 13:08:43;;;;;;;7.05;2.60;;;18.50;78.70;;;;;;5092231;28;20070;-69
2022/10/02 13:11:27;;;;;;;8.65;2.83;;;18.50;78.60;;;;;;5091445;28;20478;-69
2022/10/02 13:14:14;;;;;;;9.02;2.95;;;18.50;78.60;;;;;;5092203;28;20434;-69
2022/10/02 13:16:53;;;;;;;7.38;3.13;;;18.50;78.70;;;;;;5092438;28;20046;-69
2022/10/02 13:19:22;;;;;;;8.70;2.92;;;18.50;78.70;;;;;;5092412;28;20020;-69
2022/10/02 13:22:13;;;;;;;14.15;3.28;;;18.50;78.70;;;;;;5091040;28;20028;-69
2022/10/02 13:25:04;;;;;;;7.18;2.55;;;18.50;78.70;;;;;;5092266;28;20562;-69
2022/10/02 13:27:33;;;;;;;6.03;2.40;;;18.50;78.70;;;;;;5071135;28;20105;-69
2022/10/02 13:30:10;;;;;;;5.60;2.13;;;18.50;78.70;;;;;;5072102;28;20398;-69
2022/10/02 13:32:47;;;;;;;8.25;2.28;;;18.50;78.60;;;;;;5070860;28;20111;-69
2022/10/02 13:35:25;;;;;;;9.27;3.15;;;18.50;78.60;;;;;;5072042;28;20546;-69
2022/10/02 13:38:02;;;;;;;9.20;2.92;;;18.50;78.70;;;;;;5071920;28;20067;-69
2022/10/02 13:40:35;;;;;;;9.77;3.22;;;18.50;78.60;;;;;;5054118;28;20438;-69
2022/10/02 13:43:19;;;;;;;7.45;2.47;;;18.50;78.60;;;;;;5071092;28;20051;-69
2022/10/02 13:46:16;;;;;;;10.90;2.97;;;18.60;78.60;;;;;;5071957;28;20028;-69
2022/10/02 13:48:45;;;;;;;8.68;3.17;;;18.50;78.60;;;;;;5070956;28;20028;-69
2022/10/02 13:51:35;;;;;;;7.93;2.83;;;18.50;78.60;;;;;;5076566;28;20047;-69
2022/10/02 13:54:37;;;;;;;8.00;2.35;;;18.50;78.50;;;;;;5090832;28;20028;-69
2022/10/02 13:57:08;;;;;;;10.73;3.17;;;18.50;78.60;;;;;;5092080;28;20099;-69